Time;durP1;ratioP1;P1;durP2;ratioP2;P2;SDS_P1;SDS_P2;PMS_P1;PMS_P2;Temp;Humidity;BMP_temperature;BMP_pressure;BME280_temperature;BME280_humidity;BME280_pressure;Samples;Min_cycle;Max_cycle;Signal;HPM_P1;HPM_P2
2022/06/29 00:01:32;;;;;;;1.50;1.40;;;;;;;30.02;40.11;99055.30;1797942;78;30321;-51
2022/06/29 00:04:20;;;;;;;1.25;1.15;;;;;;;30.04;40.10;99050.29;1802745;78;28346;-51
2022/06/29 00:07:08;;;;;;;1.72;1.40;;;;;;;29.99;40.13;99048.41;1776909;79;28461;-51
2022/06/29 00:09:57;;;;;;;1.30;1.15;;;;;;;30.02;40.10;99046.99;1786851;79;28369;-50
2022/06/29 00:12:46;;;;;;;1.35;1.30;;;;;;;30.03;40.10;99043.95;1856991;76;28281;-48
2022/06/29 00:15:35;;;;;;;1.10;1.10;;;;;;;30.01;40.11;99043.98;1850186;76;28181;-52
2022/06/29 00:18:23;;;;;;;1.20;1.10;;;;;;;30.01;40.12;99039.82;1805020;78;27932;-48
2022/06/29 00:21:11;;;;;;;1.20;1.20;;;;;;;30.02;40.10;99040.91;1811325;78;28179;-52
2022/06/29 00:24:00;;;;;;;1.00;1.00;;;;;;;29.99;40.06;99037.33;1771281;79;28754;-51
2022/06/29 00:26:50;;;;;;;1.42;1.30;;;;;;;29.99;40.14;99040.09;1783961;79;28256;-50
2022/06/29 00:29:39;;;;;;;1.70;1.20;;;;;;;29.98;40.10;99045.39;1802020;78;28408;-50
2022/06/29 00:32:27;;;;;;;1.45;1.30;;;;;;;29.95;40.15;99042.36;1849734;76;28286;-47
2022/06/29 00:35:16;;;;;;;1.20;1.20;;;;;;;29.93;40.19;99036.30;1849919;76;28023;-50
2022/06/29 00:38:04;;;;;;;1.02;1.02;;;;;;;29.94;40.16;99034.61;1849892;76;28286;-49
2022/06/29 00:40:53;;;;;;;1.47;1.27;;;;;;;29.96;40.12;99031.56;1858426;76;28160;-51
2022/06/29 00:43:43;;;;;;;2.60;1.37;;;;;;;29.96;40.12;99035.17;1840266;77;28274;-53
2022/06/29 00:46:31;;;;;;;1.10;1.10;;;;;;;29.94;40.08;99033.23;1856969;76;28207;-52
2022/06/29 00:49:21;;;;;;;1.12;1.12;;;;;;;29.95;40.13;99032.67;1863552;76;28167;-53
2022/06/29 00:52:12;;;;;;;1.20;1.20;;;;;;;29.96;40.05;99032.95;1849220;76;28191;-49
2022/06/29 00:55:10;;;;;;;1.65;1.42;;;;;;;29.92;40.07;99029.92;1852227;76;28241;-51
2022/06/29 00:58:00;;;;;;;1.30;1.20;;;;;;;29.93;40.11;99030.20;1854634;76;28038;-49
2022/06/29 01:00:48;;;;;;;1.10;1.10;;;;;;;29.93;40.10;99028.83;1870754;75;28142;-48
2022/06/29 01:03:37;;;;;;;1.25;1.17;;;;;;;29.93;40.08;99033.53;1867369;76;28220;-49
2022/06/29 01:06:26;;;;;;;1.20;1.20;;;;;;;29.91;40.09;99029.68;1840682;77;28163;-49
2022/06/29 01:09:14;;;;;;;1.22;1.22;;;;;;;29.92;40.10;99026.36;1830792;77;28231;-51
2022/06/29 01:12:04;;;;;;;1.35;1.20;;;;;;;29.95;40.01;99020.20;1842685;77;28164;-49
2022/06/29 01:14:54;;;;;;;1.90;1.30;;;;;;;29.94;40.05;99014.42;1839933;77;28249;-53
2022/06/29 01:17:42;;;;;;;1.02;1.02;;;;;;;29.90;40.09;99007.80;1858323;76;28256;-50
2022/06/29 01:20:30;;;;;;;1.37;1.00;;;;;;;29.92;40.06;99010.55;1854991;76;28226;-51
2022/06/29 01:23:19;;;;;;;1.40;1.30;;;;;;;29.92;40.06;99002.23;1844484;76;28206;-51
2022/06/29 01:26:11;;;;;;;2.00;1.00;;;;;;;29.93;40.04;99010.82;1868957;75;28034;-53
2022/06/29 01:28:59;;;;;;;1.40;1.10;;;;;;;29.90;40.02;99006.41;1850834;76;28215;-54
2022/06/29 01:31:47;;;;;;;1.17;1.17;;;;;;;29.91;40.04;99013.62;1851384;76;28066;-50
2022/06/29 01:34:38;;;;;;;1.00;1.00;;;;;;;29.87;40.15;99012.56;1853817;76;28164;-54
2022/06/29 01:37:26;;;;;;;1.47;1.00;;;;;;;29.86;40.10;99011.73;1831326;77;28237;-51
2022/06/29 01:40:15;;;;;;;1.07;1.07;;;;;;;29.85;40.16;99015.61;1868157;76;28243;-54
2022/06/29 01:43:03;;;;;;;1.25;1.20;;;;;;;29.86;40.22;99011.73;1868857;76;28081;-52
2022/06/29 01:45:51;;;;;;;1.10;1.10;;;;;;;29.85;40.19;99007.30;1860613;76;28231;-50
2022/06/29 01:48:39;;;;;;;1.50;1.17;;;;;;;29.86;40.19;99011.73;1853400;76;28218;-50
2022/06/29 01:51:28;;;;;;;1.00;1.00;;;;;;;29.86;40.19;99014.50;1874387;76;28105;-48
2022/06/29 01:54:17;;;;;;;1.00;1.00;;;;;;;29.85;40.16;99012.84;1881451;75;28055;-51
2022/06/29 01:57:06;;;;;;;1.87;1.10;;;;;;;29.86;40.16;99008.97;1882522;75;28080;-50
2022/06/29 01:59:54;;;;;;;1.10;1.10;;;;;;;29.85;40.15;99003.73;1859388;76;28177;-52
2022/06/29 02:02:42;;;;;;;1.10;1.10;;;;;;;29.85;40.16;99008.69;1836953;76;28300;-50
2022/06/29 02:05:31;;;;;;;1.20;1.20;;;;;;;29.84;40.21;99011.20;1831649;77;28331;-52
2022/06/29 02:08:19;;;;;;;1.20;1.10;;;;;;;29.84;40.22;99008.98;1845492;76;28260;-50
2022/06/29 02:11:08;;;;;;;1.10;1.10;;;;;;;29.84;40.26;99005.67;1847397;76;28215;-50
2022/06/29 02:13:56;;;;;;;1.40;1.30;;;;;;;29.84;40.27;99004.28;1863778;75;28264;-51
2022/06/29 02:16:45;;;;;;;1.10;1.00;;;;;;;29.82;40.28;99003.76;1853733;76;28088;-51
2022/06/29 02:19:33;;;;;;;1.20;1.10;;;;;;;29.85;40.25;99000.38;1862575;76;28288;-52
2022/06/29 02:22:21;;;;;;;1.05;1.05;;;;;;;29.85;40.29;99002.34;1831445;77;28295;-50
2022/06/29 02:25:10;;;;;;;1.00;1.00;;;;;;;29.82;40.33;98994.06;1818466;77;28308;-51
2022/06/29 02:27:58;;;;;;;1.00;1.00;;;;;;;29.83;40.30;98982.41;1849179;76;28205;-49
2022/06/29 02:37:00;;;;;;;1.12;1.12;;;;;;;29.82;40.26;98980.22;1865844;76;28197;-50
2022/06/29 02:39:48;;;;;;;2.50;1.10;;;;;;;29.78;40.39;98981.11;1864936;76;28226;-51
2022/06/29 02:42:37;;;;;;;1.10;1.10;;;;;;;29.78;40.41;98976.37;1873234;75;28229;-50
2022/06/29 02:45:25;;;;;;;1.55;1.10;;;;;;;29.80;40.35;98985.20;1864287;75;28239;-52
2022/06/29 02:48:13;;;;;;;1.00;1.00;;;;;;;29.81;40.39;98981.88;1844341;77;28177;-54
2022/06/29 02:51:01;;;;;;;1.12;1.10;;;;;;;29.79;40.36;98978.03;1839396;77;28178;-49
2022/06/29 02:53:50;;;;;;;1.10;0.93;;;;;;;29.81;40.42;98984.09;1842764;77;28266;-50
2022/06/29 02:56:38;;;;;;;1.00;1.00;;;;;;;29.81;40.31;98981.33;1858065;76;28265;-53
2022/06/29 02:59:27;;;;;;;1.00;1.00;;;;;;;29.82;40.37;98982.16;1847074;76;28172;-50
2022/06/29 03:02:15;;;;;;;1.07;0.98;;;;;;;29.84;40.41;98980.75;1862923;76;28144;-52
2022/06/29 03:05:03;;;;;;;1.02;1.02;;;;;;;29.84;40.27;98977.98;1853954;76;28168;-52
2022/06/29 03:07:52;;;;;;;0.95;0.95;;;;;;;29.87;40.15;98973.21;1871398;75;28129;-52
2022/06/29 03:10:40;;;;;;;1.00;1.00;;;;;;;29.85;40.13;98974.07;1867978;75;28296;-49
2022/06/29 03:13:29;;;;;;;1.02;1.02;;;;;;;29.84;40.15;98979.36;1856753;76;28323;-51
2022/06/29 03:16:17;;;;;;;1.10;1.10;;;;;;;29.84;40.17;98978.53;1854207;76;28236;-52
2022/06/29 03:19:06;;;;;;;0.90;0.90;;;;;;;29.83;40.20;98984.63;1853085;77;28231;-51
2022/06/29 03:21:54;;;;;;;1.00;1.00;;;;;;;29.82;40.20;98984.92;1853707;76;28166;-50
2022/06/29 03:24:43;;;;;;;1.55;0.95;;;;;;;29.84;40.16;98986.28;1861138;76;28210;-50
2022/06/29 03:27:37;;;;;;;1.05;1.00;;;;;;;29.82;40.14;98987.70;1840220;77;28254;-48
2022/06/29 03:30:21;;;;;;;1.00;1.00;;;;;;;29.86;40.06;98988.19;1852485;76;28340;-50
2022/06/29 03:33:10;;;;;;;1.12;1.10;;;;;;;29.85;40.07;98986.53;1853889;76;28224;-51
2022/06/29 03:35:59;;;;;;;1.10;1.10;;;;;;;29.88;40.01;98988.72;1822403;77;28359;-50
2022/06/29 03:38:47;;;;;;;0.87;0.87;;;;;;;29.89;40.04;98986.23;1828000;77;28312;-50
2022/06/29 03:41:36;;;;;;;1.60;0.90;;;;;;;29.91;40.02;98990.08;1823396;77;28341;-53
2022/06/29 03:44:26;;;;;;;1.00;1.00;;;;;;;29.90;39.98;98987.86;1852154;75;28199;-55
2022/06/29 03:47:15;;;;;;;1.30;1.20;;;;;;;29.87;40.00;98991.21;1852926;77;28698;-52
2022/06/29 03:50:05;;;;;;;1.05;1.00;;;;;;;29.86;40.03;98990.96;1851373;76;28750;-53
2022/06/29 03:52:53;;;;;;;0.90;0.90;;;;;;;29.86;40.02;98992.34;1852648;77;28309;-49
2022/06/29 03:55:42;;;;;;;0.93;0.93;;;;;;;29.87;40.03;98988.44;1857349;75;28191;-53
2022/06/29 03:58:31;;;;;;;0.80;0.80;;;;;;;29.86;40.02;98992.34;1863476;75;28218;-53
2022/06/29 04:01:20;;;;;;;1.10;1.00;;;;;;;29.87;40.02;98989.03;1858556;76;28124;-49
2022/06/29 04:04:08;;;;;;;0.95;0.95;;;;;;;29.83;40.03;98979.63;1843041;76;28089;-52
2022/06/29 04:06:56;;;;;;;1.03;1.00;;;;;;;29.84;40.02;98987.67;1859561;76;28178;-49
2022/06/29 04:09:45;;;;;;;0.90;0.90;;;;;;;29.82;40.02;98981.61;1869064;75;28334;-49
2022/06/29 04:12:36;;;;;;;1.00;1.00;;;;;;;29.83;40.06;98985.17;1847788;76;28179;-53
2022/06/29 04:15:25;;;;;;;0.90;0.90;;;;;;;29.81;40.06;98985.48;1818824;78;28371;-52
2022/06/29 04:18:13;;;;;;;1.10;1.00;;;;;;;29.84;40.05;98985.45;1814814;78;28354;-48
2022/06/29 04:21:07;;;;;;;1.00;1.00;;;;;;;29.84;40.05;98982.13;1819024;78;28281;-52
2022/06/29 04:23:55;;;;;;;0.90;0.90;;;;;;;29.85;40.02;98982.96;1802524;78;28340;-51
2022/06/29 04:26:45;;;;;;;1.10;1.00;;;;;;;29.86;39.98;98985.98;1849894;76;28281;-51
2022/06/29 04:29:33;;;;;;;0.90;0.90;;;;;;;29.84;40.04;98984.06;1861051;76;28125;-53
2022/06/29 04:32:22;;;;;;;1.00;1.00;;;;;;;29.83;40.05;98987.94;1867691;75;28206;-48
2022/06/29 04:35:10;;;;;;;1.10;1.10;;;;;;;29.84;40.03;98989.05;1850785;76;28061;-50
2022/06/29 04:37:58;;;;;;;1.10;1.10;;;;;;;29.82;40.07;98988.53;1856188;76;28172;-49
2022/06/29 04:40:46;;;;;;;0.90;0.90;;;;;;;29.83;40.03;98982.41;1845300;75;28151;-53
2022/06/29 04:43:35;;;;;;;1.00;1.00;;;;;;;29.84;40.02;98979.36;1845756;77;28168;-51
2022/06/29 04:46:24;;;;;;;0.93;0.93;;;;;;;29.86;40.01;98979.05;1877454;75;28174;-49
2022/06/29 04:49:12;;;;;;;1.00;1.00;;;;;;;29.88;39.96;98975.42;1849963;75;28172;-51
2022/06/29 04:52:01;;;;;;;0.90;0.90;;;;;;;29.87;39.88;98973.21;1862200;75;28204;-50
2022/06/29 04:54:49;;;;;;;1.10;1.10;;;;;;;29.85;39.96;98972.69;1861006;75;28248;-52
2022/06/29 04:57:38;;;;;;;2.90;0.90;;;;;;;29.84;39.98;98972.44;1877441;75;28094;-50
2022/06/29 05:00:26;;;;;;;1.27;1.00;;;;;;;29.84;39.95;98969.67;1871156;75;28212;-54
2022/06/29 05:03:14;;;;;;;0.98;0.98;;;;;;;29.83;39.98;98969.39;1872155;75;28150;-50
2022/06/29 05:06:03;;;;;;;1.10;1.10;;;;;;;29.86;39.95;98966.04;1869008;75;28204;-52
2022/06/29 05:08:53;;;;;;;1.00;1.00;;;;;;;29.89;39.92;98964.63;1856777;75;28403;-54
2022/06/29 05:11:42;;;;;;;0.85;0.82;;;;;;;29.86;39.86;98967.98;1852586;76;28239;-54
2022/06/29 05:14:30;;;;;;;1.00;1.00;;;;;;;29.84;39.94;98965.52;1849397;76;28582;-51
2022/06/29 05:17:18;;;;;;;0.82;0.82;;;;;;;29.82;39.97;98963.61;1826167;77;28265;-55
2022/06/29 05:20:09;;;;;;;1.07;0.80;;;;;;;29.85;39.92;98964.96;1854799;76;28212;-55
2022/06/29 05:22:57;;;;;;;0.98;0.98;;;;;;;29.83;39.97;98959.70;1857692;75;28170;-53
2022/06/29 05:25:46;;;;;;;0.85;0.85;;;;;;;29.83;39.97;98957.48;1873468;75;28144;-54
2022/06/29 05:28:34;;;;;;;0.80;0.80;;;;;;;29.86;39.83;98960.50;1858360;75;28349;-53
2022/06/29 05:31:23;;;;;;;0.90;0.90;;;;;;;29.88;39.91;98954.66;1853832;76;28244;-51
2022/06/29 05:34:11;;;;;;;0.90;0.90;;;;;;;29.85;39.85;98951.91;1873900;75;28145;-50
2022/06/29 05:37:00;;;;;;;0.80;0.80;;;;;;;29.85;39.91;98956.07;1828399;77;28240;-54
2022/06/29 05:39:48;;;;;;;0.90;0.90;;;;;;;29.89;39.83;98959.92;1872466;75;28280;-53
2022/06/29 05:42:37;;;;;;;0.93;0.90;;;;;;;29.88;39.79;98958.26;1863088;75;28181;-54
2022/06/29 05:45:28;;;;;;;1.00;1.00;;;;;;;29.85;39.86;98951.91;1859288;75;28176;-52
2022/06/29 05:48:17;;;;;;;0.93;0.93;;;;;;;29.85;39.82;98956.66;1851414;75;28803;-54
2022/06/29 05:51:05;;;;;;;0.90;0.90;;;;;;;29.84;39.91;98958.59;1836703;77;28147;-54
2022/06/29 05:53:53;;;;;;;1.00;1.00;;;;;;;29.86;39.82;98959.12;1816071;77;28298;-54
2022/06/29 05:56:42;;;;;;;0.83;0.83;;;;;;;29.88;39.79;98961.58;1848252;76;28231;-53
2022/06/29 05:59:31;;;;;;;0.90;0.90;;;;;;;29.83;39.85;98945.85;1847800;76;28293;-53
2022/06/29 06:02:19;;;;;;;0.90;0.90;;;;;;;29.87;39.83;98962.13;1822847;77;28201;-54
2022/06/29 06:05:09;;;;;;;0.80;0.80;;;;;;;29.85;39.84;98964.96;1827774;77;28364;-54
2022/06/29 06:07:57;;;;;;;0.90;0.90;;;;;;;29.84;39.92;98959.98;1833716;77;28287;-51
2022/06/29 06:10:45;;;;;;;1.00;1.00;;;;;;;29.86;39.82;98974.90;1813126;77;28330;-53
2022/06/29 06:13:34;;;;;;;1.00;1.00;;;;;;;29.85;39.83;98969.91;1847439;76;28085;-53
2022/06/29 06:16:22;;;;;;;0.90;0.90;;;;;;;29.85;39.82;98967.15;1836141;77;28401;-55
2022/06/29 06:19:11;;;;;;;0.87;0.87;;;;;;;29.85;39.83;98969.91;1827569;77;28307;-53
2022/06/29 06:22:00;;;;;;;0.90;0.90;;;;;;;29.84;39.87;98972.44;1833766;77;28391;-53
2022/06/29 06:24:49;;;;;;;1.20;1.00;;;;;;;29.84;39.87;98965.52;1838182;77;28137;-53
2022/06/29 06:27:37;;;;;;;1.00;1.00;;;;;;;29.89;39.72;98969.61;1840817;77;28327;-51
2022/06/29 06:30:26;;;;;;;0.90;0.90;;;;;;;29.88;39.79;98966.56;1842641;77;28261;-53
2022/06/29 06:33:14;;;;;;;0.80;0.80;;;;;;;29.84;39.82;98964.13;1844546;76;28209;-54
2022/06/29 06:36:03;;;;;;;0.80;0.80;;;;;;;29.86;39.80;98967.98;1839294;76;28257;-53
2022/06/29 06:38:51;;;;;;;0.90;0.90;;;;;;;29.86;39.79;98963.27;1810876;77;28362;-53
2022/06/29 06:41:39;;;;;;;0.90;0.90;;;;;;;29.84;39.95;98961.36;1844219;76;28168;-52
2022/06/29 06:44:27;;;;;;;1.00;1.00;;;;;;;29.83;39.97;98962.47;1832236;77;28137;-53
2022/06/29 06:47:16;;;;;;;0.90;0.90;;;;;;;29.83;40.02;98954.72;1844559;76;28202;-51
2022/06/29 06:50:06;;;;;;;1.25;1.00;;;;;;;29.83;39.98;98961.64;1846238;76;28151;-52
2022/06/29 06:52:54;;;;;;;1.10;1.10;;;;;;;29.86;39.93;98960.50;1844566;77;28261;-53
2022/06/29 06:55:43;;;;;;;2.30;0.90;;;;;;;29.80;39.91;98964.44;1838019;77;31241;-52
2022/06/29 06:58:31;;;;;;;0.90;0.90;;;;;;;29.82;39.89;98971.91;1840786;77;31136;-53
2022/06/29 07:01:22;;;;;;;1.00;1.00;;;;;;;29.81;39.92;98970.80;1841251;77;28204;-52
2022/06/29 07:04:11;;;;;;;1.30;1.20;;;;;;;29.81;40.04;98967.48;1840151;77;28179;-52
2022/06/29 07:07:00;;;;;;;1.70;1.12;;;;;;;29.82;39.86;98971.91;1807588;77;28162;-49
2022/06/29 07:09:49;;;;;;;3.50;1.17;;;;;;;29.81;39.95;98971.63;1843430;77;28186;-52
2022/06/29 07:12:38;;;;;;;1.15;1.15;;;;;;;29.81;39.97;98973.02;1834539;76;28308;-52
2022/06/29 07:15:26;;;;;;;1.33;1.13;;;;;;;29.81;40.01;98973.02;1853944;76;28341;-52
2022/06/29 07:18:14;;;;;;;1.50;1.20;;;;;;;29.84;40.08;98974.38;1847526;76;28161;-52
2022/06/29 07:21:03;;;;;;;1.45;1.17;;;;;;;29.84;40.31;98969.67;1836556;76;28499;-53
2022/06/29 07:23:52;;;;;;;1.20;1.10;;;;;;;29.82;40.40;98973.30;1819947;77;28447;-51
2022/06/29 07:26:40;;;;;;;1.30;1.00;;;;;;;29.86;40.50;98969.36;1799971;77;28386;-52
2022/06/29 07:29:29;;;;;;;1.20;1.10;;;;;;;29.85;40.52;98972.69;1842742;76;28214;-53
2022/06/29 07:32:17;;;;;;;1.20;1.10;;;;;;;29.86;40.53;98972.13;1841149;77;28332;-54
2022/06/29 07:35:06;;;;;;;1.30;1.20;;;;;;;29.83;40.59;98976.31;1841222;76;28418;-55
2022/06/29 07:37:55;;;;;;;1.40;1.30;;;;;;;29.82;40.60;98977.45;1848233;76;28206;-50
2022/06/29 07:40:44;;;;;;;1.98;1.20;;;;;;;29.81;40.68;98970.25;1830163;77;32135;-53
2022/06/29 07:43:32;;;;;;;1.40;1.10;;;;;;;29.82;40.69;98973.84;1839627;77;28681;-52
2022/06/29 07:46:21;;;;;;;1.25;1.17;;;;;;;29.82;40.76;98973.84;1839059;76;28224;-52
2022/06/29 07:49:09;;;;;;;1.00;1.00;;;;;;;29.83;40.75;98968.56;1848306;76;28153;-54
2022/06/29 07:51:57;;;;;;;1.37;1.27;;;;;;;29.83;40.78;98961.64;1847254;76;28245;-52
2022/06/29 07:54:46;;;;;;;2.45;1.27;;;;;;;29.82;40.73;98966.38;1867877;76;28203;-53
2022/06/29 07:57:36;;;;;;;1.20;1.10;;;;;;;29.83;40.78;98972.71;1850123;76;28253;-52
2022/06/29 08:00:26;;;;;;;1.20;1.20;;;;;;;29.82;40.78;98962.22;1857994;76;28281;-49
2022/06/29 08:03:14;;;;;;;1.37;1.10;;;;;;;29.86;40.66;98967.98;1869294;75;28200;-51
2022/06/29 08:06:05;;;;;;;1.20;1.00;;;;;;;29.85;40.79;98962.99;1882082;75;28226;-53
2022/06/29 08:08:54;;;;;;;2.02;1.20;;;;;;;29.84;40.80;98958.59;1852726;76;28707;-51
2022/06/29 08:11:43;;;;;;;0.90;0.90;;;;;;;29.87;40.81;98960.75;1877547;76;28210;-54
2022/06/29 08:14:32;;;;;;;1.37;1.27;;;;;;;29.86;40.75;98964.66;1867644;75;29313;-52
2022/06/29 08:17:21;;;;;;;1.00;1.00;;;;;;;29.87;40.77;98971.83;1884985;75;28383;-51
2022/06/29 08:20:10;;;;;;;1.20;1.10;;;;;;;29.86;40.74;98970.20;1882566;75;28246;-54
2022/06/29 08:22:59;;;;;;;1.27;1.17;;;;;;;29.86;40.77;98981.27;1865116;76;28271;-52
2022/06/29 08:25:47;;;;;;;1.00;1.00;;;;;;;29.87;40.83;98979.33;1873264;74;28170;-53
2022/06/29 08:28:36;;;;;;;1.23;1.20;;;;;;;29.84;40.80;98979.36;1870308;76;28187;-54
2022/06/29 08:31:25;;;;;;;1.40;1.10;;;;;;;29.89;40.76;98967.40;1845259;76;28272;-52
2022/06/29 08:34:20;;;;;;;1.40;1.00;;;;;;;29.89;40.74;98968.78;1867612;76;28163;-52
2022/06/29 08:37:04;;;;;;;1.20;1.10;;;;;;;29.89;40.73;98972.37;1854795;76;28316;-53
2022/06/29 08:39:53;;;;;;;1.00;1.00;;;;;;;29.87;40.69;98974.59;1850976;76;28164;-52
2022/06/29 08:42:42;;;;;;;1.20;1.00;;;;;;;29.89;40.76;98968.78;1868527;76;28081;-53
2022/06/29 08:45:31;;;;;;;1.00;1.00;;;;;;;29.90;40.68;98970.41;1819606;77;28264;-53
2022/06/29 08:48:20;;;;;;;1.00;1.00;;;;;;;29.91;40.73;98966.53;1848711;75;28171;-52
2022/06/29 08:51:11;;;;;;;0.90;0.90;;;;;;;29.95;40.66;98968.97;1840759;76;28290;-56
2022/06/29 08:54:03;;;;;;;1.10;0.90;;;;;;;29.95;40.66;98961.49;1864314;76;28121;-54
2022/06/29 08:56:53;;;;;;;1.00;1.00;;;;;;;29.94;40.64;98962.60;1859489;76;28088;-54
2022/06/29 08:59:43;;;;;;;1.50;1.20;;;;;;;29.96;40.63;98954.84;1871219;75;28235;-54
2022/06/29 09:02:32;;;;;;;1.12;1.12;;;;;;;29.92;40.70;98956.53;1845933;75;28107;-54
2022/06/29 09:05:20;;;;;;;1.20;0.90;;;;;;;29.92;40.71;98960.69;1846717;76;28168;-54
2022/06/29 09:08:09;;;;;;;1.20;0.90;;;;;;;29.95;40.69;98956.51;1836694;77;28127;-54
2022/06/29 09:10:57;;;;;;;1.00;1.00;;;;;;;29.98;40.66;98953.98;1856938;76;28250;-50
2022/06/29 09:13:45;;;;;;;1.20;1.10;;;;;;;29.98;40.57;98956.75;1833560;77;28172;-55
2022/06/29 09:16:53;;;;;;;1.20;1.10;;;;;;;29.99;40.66;98954.82;1859511;76;28031;-53
2022/06/29 09:19:45;;;;;;;1.00;1.00;;;;;;;29.98;40.65;98953.16;1839951;76;28231;-52
2022/06/29 09:22:33;;;;;;;0.83;0.83;;;;;;;29.95;40.67;98951.80;1802833;78;28266;-53
2022/06/29 09:25:24;;;;;;;0.95;0.95;;;;;;;29.97;40.62;98957.03;1787182;79;28287;-54
2022/06/29 09:28:23;;;;;;;1.30;1.20;;;;;;;29.97;40.68;98955.09;1777082;79;28373;-55
2022/06/29 09:31:14;;;;;;;1.10;1.10;;;;;;;29.95;40.67;98950.97;1850407;76;28127;-50
2022/06/29 09:34:05;;;;;;;3.35;1.10;;;;;;;29.98;40.68;98944.84;1868295;75;28171;-54
2022/06/29 09:36:57;;;;;;;0.90;0.90;;;;;;;29.98;40.65;98947.06;1844888;76;28248;-53
2022/06/29 09:39:48;;;;;;;1.30;1.20;;;;;;;29.99;40.69;98937.61;1866901;75;28324;-49
2022/06/29 09:42:36;;;;;;;0.80;0.80;;;;;;;29.94;40.67;98937.67;1871072;76;28177;-53
2022/06/29 09:45:25;;;;;;;1.00;1.00;;;;;;;29.99;40.63;98938.20;1834192;77;28193;-54
2022/06/29 09:48:13;;;;;;;2.52;0.93;;;;;;;29.97;40.59;98935.70;1862704;76;28373;-51
2022/06/29 09:51:30;;;;;;;1.00;1.00;;;;;;;29.95;40.62;98935.18;1860229;76;28105;-49
2022/06/29 09:53:55;;;;;;;1.10;1.00;;;;;;;29.94;40.68;98932.13;1874639;75;28181;-52
2022/06/29 09:56:48;;;;;;;1.00;1.00;;;;;;;30.00;40.64;98930.97;1862995;76;28282;-52
2022/06/29 10:02:47;;;;;;;0.80;0.80;;;;;;;30.00;40.61;98920.44;1849013;74;28309;-52
2022/06/29 10:08:43;;;;;;;0.95;0.95;;;;;;;30.01;40.64;98915.18;1866500;75;37455;-52
2022/06/29 10:15:29;;;;;;;1.00;1.00;;;;;;;30.03;40.61;98915.70;1852896;76;28222;-52
2022/06/29 10:18:55;;;;;;;1.02;1.02;;;;;;;29.94;40.65;98913.33;1824631;76;28239;-50
2022/06/29 10:21:44;;;;;;;0.90;0.90;;;;;;;29.92;40.73;98914.20;1849753;76;28218;-50
2022/06/29 10:24:33;;;;;;;0.85;0.85;;;;;;;29.94;40.84;98907.80;1845767;76;28159;-48
2022/06/29 10:27:21;;;;;;;1.55;1.00;;;;;;;29.95;40.74;98912.19;1824166;77;28321;-53
2022/06/29 10:30:21;;;;;;;0.90;0.90;;;;;;;29.97;40.71;98905.23;1864443;75;28182;-53
2022/06/29 10:33:33;;;;;;;0.78;0.78;;;;;;;30.00;40.64;98910.19;1846379;76;28176;-52
2022/06/29 10:36:21;;;;;;;1.30;0.93;;;;;;;30.01;40.64;98900.74;1853011;75;28150;-54
2022/06/29 10:39:11;;;;;;;0.93;0.93;;;;;;;29.97;40.71;98902.47;1867096;75;28343;-53
2022/06/29 10:45:06;;;;;;;0.98;0.98;;;;;;;30.04;40.59;98897.94;1831804;76;28364;-50
2022/06/29 10:47:58;;;;;;;1.10;1.00;;;;;;;29.97;40.61;98889.17;1862882;75;28028;-51
2022/06/29 10:50:47;;;;;;;1.00;1.00;;;;;;;29.99;40.62;98890.53;1869573;75;28174;-53
2022/06/29 10:53:35;;;;;;;1.00;1.00;;;;;;;30.00;40.56;98889.97;1850349;76;28184;-53
2022/06/29 10:56:23;;;;;;;1.05;0.95;;;;;;;30.00;40.61;98882.50;1850913;76;28164;-54
2022/06/29 10:59:37;;;;;;;0.90;0.90;;;;;;;30.01;40.51;98877.79;1863818;76;28027;-50
2022/06/29 11:02:26;;;;;;;2.02;1.05;;;;;;;30.05;40.50;98879.66;1850075;76;28060;-56
2022/06/29 11:05:15;;;;;;;0.90;0.90;;;;;;;29.99;40.57;98868.95;1826514;77;28234;-52
2022/06/29 11:17:42;;;;;;;1.00;1.00;;;;;;;30.00;40.52;98860.34;1839197;76;28246;-53
2022/06/29 11:20:30;;;;;;;1.00;1.00;;;;;;;30.00;40.54;98856.19;1866069;75;28298;-51
2022/06/29 11:23:24;;;;;;;1.00;1.00;;;;;;;29.98;40.48;98854.27;1869494;75;28027;-50
2022/06/29 11:26:12;;;;;;;1.00;1.00;;;;;;;29.97;40.53;98854.00;1865340;75;28193;-51
2022/06/29 11:29:03;;;;;;;0.90;0.90;;;;;;;30.01;40.51;98848.12;1872086;76;28347;-52
2022/06/29 11:32:04;;;;;;;1.05;1.05;;;;;;;30.03;40.39;98844.52;1855245;76;28066;-54
2022/06/29 11:34:56;;;;;;;0.90;0.90;;;;;;;30.05;40.40;98840.05;1861299;76;28244;-53
2022/06/29 11:37:50;;;;;;;0.90;0.90;;;;;;;30.01;40.42;98834.27;1815083;77;28290;-54
2022/06/29 11:40:43;;;;;;;0.85;0.85;;;;;;;30.03;40.53;98831.22;1845099;75;28281;-52
2022/06/29 11:43:32;;;;;;;0.90;0.90;;;;;;;30.03;40.48;98836.20;1851200;76;28160;-52
2022/06/29 11:46:22;;;;;;;0.80;0.80;;;;;;;30.03;40.41;98823.73;1869873;75;28180;-52
2022/06/29 11:49:36;;;;;;;0.90;0.90;;;;;;;30.01;40.48;98816.85;1870654;76;28043;-51
2022/06/29 11:52:27;;;;;;;0.80;0.80;;;;;;;30.03;40.41;98821.52;1854286;76;28293;-52
2022/06/29 11:55:15;;;;;;;0.80;0.80;;;;;;;30.00;40.44;98816.02;1825601;77;28168;-53
2022/06/29 11:58:04;;;;;;;0.90;0.90;;;;;;;29.99;40.46;98810.80;1856932;75;28243;-55
2022/06/29 12:00:55;;;;;;;1.10;1.10;;;;;;;30.00;40.46;98816.58;1856691;77;28145;-53
2022/06/29 12:03:51;;;;;;;0.90;0.90;;;;;;;30.01;40.43;98809.92;1864951;75;28090;-52
2022/06/29 12:06:40;;;;;;;0.87;0.87;;;;;;;30.01;40.42;98801.62;1863002;76;28097;-54
2022/06/29 12:09:28;;;;;;;1.00;0.90;;;;;;;29.98;40.43;98796.11;1857278;77;28204;-51
2022/06/29 12:12:18;;;;;;;1.05;1.00;;;;;;;29.99;40.44;98797.74;1857244;77;28161;-52
2022/06/29 12:15:08;;;;;;;1.10;1.00;;;;;;;30.00;40.41;98795.25;1857160;77;28027;-51
2022/06/29 12:17:57;;;;;;;0.93;0.93;;;;;;;30.01;40.40;98784.41;1857340;77;28027;-54
2022/06/29 12:20:45;;;;;;;1.00;1.00;;;;;;;30.02;40.34;98779.70;1825809;78;28146;-50
2022/06/29 12:23:33;;;;;;;1.00;1.00;;;;;;;29.99;40.36;98776.97;1829167;77;28095;-52
2022/06/29 12:26:21;;;;;;;1.00;1.00;;;;;;;30.04;40.32;98782.44;1857134;77;28263;-51
2022/06/29 12:29:13;;;;;;;0.90;0.90;;;;;;;30.02;40.33;98774.99;1825162;78;28248;-55
2022/06/29 12:32:01;;;;;;;0.90;0.90;;;;;;;30.04;40.29;98778.28;1856080;77;28492;-50
2022/06/29 12:34:49;;;;;;;0.98;0.98;;;;;;;30.00;40.27;98777.24;1857159;77;28146;-54
2022/06/29 12:37:43;;;;;;;0.98;0.98;;;;;;;30.05;40.29;98779.11;1857174;77;28211;-51
2022/06/29 12:40:32;;;;;;;0.95;0.95;;;;;;;30.07;40.20;98779.08;1839539;77;28231;-54
2022/06/29 12:43:21;;;;;;;0.90;0.90;;;;;;;30.04;40.17;98767.20;1847775;77;28281;-55
2022/06/29 12:46:09;;;;;;;0.90;0.90;;;;;;;30.04;40.13;98763.05;1849729;77;28228;-53
2022/06/29 12:48:59;;;;;;;1.05;1.05;;;;;;;30.02;40.21;98761.14;1857267;77;28159;-52
2022/06/29 12:51:48;;;;;;;1.20;1.20;;;;;;;29.99;40.17;98753.43;1825431;78;28233;-50
2022/06/29 12:54:37;;;;;;;1.10;1.10;;;;;;;29.99;40.17;98758.97;1856671;76;32192;-50
2022/06/29 12:57:26;;;;;;;1.02;1.02;;;;;;;29.98;40.15;98743.49;1867777;76;28126;-52
2022/06/29 13:00:17;;;;;;;1.07;1.07;;;;;;;30.01;40.10;98751.17;1853843;76;28219;-53
2022/06/29 13:03:05;;;;;;;1.10;1.00;;;;;;;30.01;40.06;98746.22;1850556;74;28169;-52
2022/06/29 13:05:54;;;;;;;1.00;1.00;;;;;;;30.02;40.02;98739.54;1833892;77;28339;-53
2022/06/29 13:08:42;;;;;;;1.30;1.10;;;;;;;30.03;39.98;98730.13;1869043;76;28223;-54
2022/06/29 13:11:30;;;;;;;1.20;1.10;;;;;;;30.04;39.98;98735.34;1869423;76;28618;-52
2022/06/29 13:14:18;;;;;;;1.07;0.98;;;;;;;30.09;39.86;98734.44;1848861;76;28270;-53
2022/06/29 13:17:07;;;;;;;1.00;1.00;;;;;;;30.09;39.86;98732.50;1869329;76;28152;-52
2022/06/29 13:20:01;;;;;;;1.00;1.00;;;;;;;30.11;39.79;98721.10;1869383;76;28794;-51
2022/06/29 13:22:45;;;;;;;1.00;1.00;;;;;;;30.08;39.78;98723.11;1869499;76;28649;-52
2022/06/29 13:25:33;;;;;;;1.00;1.00;;;;;;;30.10;39.72;98719.48;1869212;76;28159;-50
2022/06/29 13:28:23;;;;;;;1.00;1.00;;;;;;;30.09;39.67;98722.80;1869297;76;28473;-54
2022/06/29 13:31:12;;;;;;;1.00;1.00;;;;;;;30.08;39.69;98714.80;1869511;76;28223;-49
2022/06/29 13:34:01;;;;;;;1.15;1.05;;;;;;;30.07;39.68;98706.22;1837092;77;28235;-52
2022/06/29 13:36:49;;;;;;;0.90;0.90;;;;;;;30.06;39.68;98705.39;1867693;76;28234;-52
2022/06/29 13:39:38;;;;;;;1.05;1.05;;;;;;;30.06;39.68;98701.80;1869470;76;31242;-52
2022/06/29 13:42:27;;;;;;;1.00;1.00;;;;;;;30.11;39.61;98691.22;1869451;76;28231;-51
2022/06/29 13:45:16;;;;;;;1.30;1.20;;;;;;;30.09;39.55;98693.72;1836819;77;28250;-53
2022/06/29 13:48:05;;;;;;;1.02;1.02;;;;;;;30.07;39.60;98684.89;1865986;76;28175;-54